CYZE - Gore Bay Manitoulin Airport

Pirep is a free, collaborative database of all public and private airports located within the United States. All pilots are welcome to contribute, edit, and improve any airport they have local knowledge about, no registration required.
Are you familiar with this airport? Help out other pilots by adding your local knowledge.
Uploaded photos will be licensed under a CC BY-SA 4.0 license. Please only upload photos you have the rights to use.
Tags
Public
Undocu­mented
METAR / TAF
Webcam
Edit Tags
Food
Camping
Lodging
Car Rental
Bicycles
Swimming
Golfing
Fishing
Hot Springs
Museum
Flying Clubs
Airpark
Upcoming Events
No upcoming events. Is anything happening here soon?
*
*
*

Where exactly on/near the airport is this event taking place?

Is there a webpage with more information for this event?

Who should be contacted for more information?

What is this event all about?

Repeat every
Description
Transient Parking
Fuel Location
Landing & Tie-down Fees
Crew Car Availability
Flying Clubs
WiFi Access
Airport Statistics
Location: Gore Bay, Ontario
Elevation: 623ft
Runway 11/29: 4,900ft
Warning: This airport was imported from a non-authoritative source. It's public/private status may not be accurate.
Access: Open to the public
Current Weather — VFR
  • Weather data is strictly informational and not for flight planning purposes.
  • METAR
    2024-04-24 08:00:00 EDT
    Ceiling Wind Temperature Dewpoint Weather Visbility
    Sky clear 30° @ 16kt, gusts 26kt 23°F 8°F N/A 9SM
    Raw: CYZE 241200Z AUTO 03016G26KT 9SM CLR M05/M13 A3015 RMK SLP219
  • TAF
    2024-04-24 06:00:00 EDT – 2024-04-24 08:00:00 EDT
    Ceiling Wind Weather Visbility
    4,000ft 30° @ 15kt, gusts 30kt N/A 6SM
    Clouds: Broken @ 4,000ft
    Raw: TAF CYZE 240940Z 2410/2422 03015G30KT P6SM BKN040 FM241200 01020G30KT P6SM SKC BECMG 2414/2416 02010G20KT BECMG 2416/2418 01010KT FM242000 35007KT P6SM SKC RMK FCST BASED ON AUTO OBS. NXT FCST BY 241400Z
  • TAF
    2024-04-24 08:00:00 EDT – 2024-04-24 10:00:00 EDT
    Ceiling Wind Weather Visbility
    Sky clear 10° @ 20kt, gusts 30kt N/A 6SM
    Clouds: @ ft
    Raw: TAF CYZE 240940Z 2410/2422 03015G30KT P6SM BKN040 FM241200 01020G30KT P6SM SKC BECMG 2414/2416 02010G20KT BECMG 2416/2418 01010KT FM242000 35007KT P6SM SKC RMK FCST BASED ON AUTO OBS. NXT FCST BY 241400Z
  • TAF
    2024-04-24 10:00:00 EDT – 2024-04-24 12:00:00 EDT
    Ceiling Wind Weather Visbility
    Sky clear 20° @ 10kt, gusts 20kt N/A 6SM
    Clouds: @ ft
    Raw: TAF CYZE 240940Z 2410/2422 03015G30KT P6SM BKN040 FM241200 01020G30KT P6SM SKC BECMG 2414/2416 02010G20KT BECMG 2416/2418 01010KT FM242000 35007KT P6SM SKC RMK FCST BASED ON AUTO OBS. NXT FCST BY 241400Z
  • TAF
    2024-04-24 12:00:00 EDT – 2024-04-24 16:00:00 EDT
    Ceiling Wind Weather Visbility
    Sky clear 10° @ 10kt N/A 6SM
    Clouds: @ ft
    Raw: TAF CYZE 240940Z 2410/2422 03015G30KT P6SM BKN040 FM241200 01020G30KT P6SM SKC BECMG 2414/2416 02010G20KT BECMG 2416/2418 01010KT FM242000 35007KT P6SM SKC RMK FCST BASED ON AUTO OBS. NXT FCST BY 241400Z
  • TAF
    2024-04-24 16:00:00 EDT – 2024-04-24 18:00:00 EDT
    Ceiling Wind Weather Visbility
    Sky clear 350° @ 7kt N/A 6SM
    Clouds: @ ft
    Raw: TAF CYZE 240940Z 2410/2422 03015G30KT P6SM BKN040 FM241200 01020G30KT P6SM SKC BECMG 2414/2416 02010G20KT BECMG 2416/2418 01010KT FM242000 35007KT P6SM SKC RMK FCST BASED ON AUTO OBS. NXT FCST BY 241400Z
Click/tap to add an annotation marker to the map
Direct links to live image URLs will be displayed inline on this page. URLs to separate webpages will be linked to.
URL:
Direct links to live image URLs will be displayed inline on this page. URLs to separate webpages will be linked to.
URL:
Comments
Leave a comment What was your experience like at this airport?